Time;durP1;ratioP1;P1;durP2;ratioP2;P2;SDS_P1;SDS_P2;PMS_P1;PMS_P2;Temp;Humidity;BMP_temperature;BMP_pressure;BME280_temperature;BME280_humidity;BME280_pressure;Samples;Min_cycle;Max_cycle;Signal;HPM_P1;HPM_P2
2021/05/23 00:02:24;;;;;;;10.00;1.77;;;;;;;-143.98;100.00;68091.63;6221907;23;20099;-82
2021/05/23 00:04:54;;;;;;;10.57;1.90;;;;;;;-143.98;100.00;68091.63;6249016;23;20371;-83
2021/05/23 00:07:26;;;;;;;7.32;2.13;;;;;;;-143.98;100.00;68091.63;6251154;23;20027;-83
2021/05/23 00:09:54;;;;;;;3.85;1.77;;;;;;;-143.98;100.00;68091.63;6248084;23;20024;-83
2021/05/23 00:12:21;;;;;;;10.68;2.53;;;;;;;-143.98;100.00;68091.63;6254862;23;20028;-83
2021/05/23 00:14:49;;;;;;;13.35;2.22;;;;;;;-143.98;100.00;68091.63;6264919;23;20255;-83
2021/05/23 00:17:15;;;;;;;12.82;2.90;;;;;;;-143.98;100.00;68091.63;6265170;23;20028;-83
2021/05/23 00:19:45;;;;;;;5.90;1.90;;;;;;;-143.98;100.00;68091.63;6265933;23;20105;-83
2021/05/23 00:22:12;;;;;;;6.85;2.00;;;;;;;-143.98;100.00;68091.63;6264374;23;20019;-83
2021/05/23 00:24:42;;;;;;;11.10;3.15;;;;;;;-143.98;100.00;68091.63;6253040;22;20038;-82
2021/05/23 00:27:09;;;;;;;7.65;1.90;;;;;;;-143.98;100.00;68091.63;6248925;23;20023;-83
2021/05/23 00:29:46;;;;;;;9.70;2.53;;;;;;;-143.98;100.00;68091.63;6249323;23;20101;-83
2021/05/23 00:32:13;;;;;;;7.57;2.10;;;;;;;-143.98;100.00;68091.63;6251631;22;20066;-82
2021/05/23 00:34:45;;;;;;;9.85;2.95;;;;;;;-143.98;100.00;68091.63;6249977;23;20075;-82
2021/05/23 00:37:12;;;;;;;8.77;2.33;;;;;;;-143.98;100.00;68091.63;6250454;23;20383;-82
2021/05/23 00:39:44;;;;;;;9.90;2.33;;;;;;;-143.98;100.00;68091.63;6249088;23;20032;-84
2021/05/23 00:42:11;;;;;;;8.75;2.13;;;;;;;-143.98;100.00;68091.63;6223538;23;20042;-84
2021/05/23 00:44:38;;;;;;;8.05;2.10;;;;;;;-143.98;100.00;68091.63;6250024;23;20028;-84
2021/05/23 00:47:07;;;;;;;10.43;2.58;;;;;;;-143.98;100.00;68091.63;6223531;23;20032;-84
2021/05/23 00:49:37;;;;;;;7.85;2.20;;;;;;;-143.98;100.00;68091.63;6249107;23;20051;-83
2021/05/23 00:52:07;;;;;;;10.40;2.10;;;;;;;-143.98;100.00;68091.63;6223365;23;20023;-84
2021/05/23 00:54:34;;;;;;;17.63;2.65;;;;;;;-143.98;100.00;68091.63;6247653;23;20318;-82
2021/05/23 00:57:02;;;;;;;9.48;2.53;;;;;;;-143.98;100.00;68091.63;6249198;23;20043;-83
2021/05/23 00:59:30;;;;;;;8.27;2.30;;;;;;;-143.98;100.00;68091.63;6262061;22;20012;-82
2021/05/23 01:01:56;;;;;;;12.45;2.35;;;;;;;-143.98;100.00;68091.63;6266671;22;20018;-82
2021/05/23 01:04:23;;;;;;;11.20;2.58;;;;;;;-143.98;100.00;68091.63;6251904;23;20056;-82
2021/05/23 01:07:00;;;;;;;9.20;2.20;;;;;;;-143.98;100.00;68091.63;6253179;23;20020;-84
2021/05/23 01:09:29;;;;;;;12.10;2.40;;;;;;;-143.98;100.00;68091.63;6227751;23;20326;-83
2021/05/23 01:12:35;;;;;;;9.85;2.33;;;;;;;-143.98;100.00;68091.63;6254557;23;20039;-83
2021/05/23 01:15:02;;;;;;;8.02;2.25;;;;;;;-143.98;100.00;68091.63;6241030;23;20095;-83
2021/05/23 01:17:42;;;;;;;12.05;2.45;;;;;;;-143.98;100.00;68091.63;6223422;23;20038;-84
2021/05/23 01:20:16;;;;;;;8.25;2.10;;;;;;;-143.98;100.00;68091.63;6246681;23;20027;-83
2021/05/23 01:22:46;;;;;;;;;;;;;;;-143.98;100.00;68091.63;6247066;22;20120;-84
2021/05/23 01:25:17;;;;;;;6.32;2.22;;;;;;;-143.98;100.00;68091.63;6219928;23;20242;-83
2021/05/23 01:27:47;;;;;;;9.65;2.58;;;;;;;-143.98;100.00;68091.63;6247900;23;20381;-83
2021/05/23 01:30:17;;;;;;;8.63;2.03;;;;;;;-143.98;100.00;68091.63;6222658;23;20035;-83
2021/05/23 01:32:47;;;;;;;7.88;2.10;;;;;;;-143.98;100.00;68091.63;6222549;23;20405;-83
2021/05/23 01:35:18;;;;;;;9.82;2.30;;;;;;;-143.98;100.00;68091.63;6223373;23;20016;-83
2021/05/23 01:37:55;;;;;;;7.10;1.90;;;;;;;-143.98;100.00;68091.63;6260276;22;20008;-83
2021/05/23 01:40:22;;;;;;;12.05;2.47;;;;;;;-143.98;100.00;68091.63;6241875;23;20031;-83
2021/05/23 01:42:48;;;;;;;5.22;2.10;;;;;;;-143.98;100.00;68091.63;6232294;22;20028;-84
2021/05/23 01:45:16;;;;;;;6.90;2.08;;;;;;;-143.98;100.00;68091.63;6223626;23;20112;-83
2021/05/23 01:47:44;;;;;;;10.35;2.40;;;;;;;-143.98;100.00;68091.63;6250204;22;20028;-84
2021/05/23 01:50:11;;;;;;;7.97;2.17;;;;;;;-143.98;100.00;68091.63;6238278;22;20022;-84
2021/05/23 01:52:52;;;;;;;9.80;2.55;;;;;;;-143.98;100.00;68091.63;6263671;23;20024;-83
2021/05/23 01:55:19;;;;;;;11.30;2.75;;;;;;;-143.98;100.00;68091.63;6224129;23;20095;-83
2021/05/23 01:57:46;;;;;;;9.50;2.67;;;;;;;-143.98;100.00;68091.63;6224444;23;20028;-82
2021/05/23 02:00:17;;;;;;;17.85;3.03;;;;;;;-143.98;100.00;68091.63;6249633;23;20032;-82
2021/05/23 02:02:43;;;;;;;12.88;2.70;;;;;;;-143.98;100.00;68091.63;6249506;23;20024;-82
2021/05/23 02:05:14;;;;;;;8.57;2.67;;;;;;;-143.98;100.00;68091.63;6223070;23;20224;-83
2021/05/23 02:07:41;;;;;;;11.18;2.53;;;;;;;-143.98;100.00;68091.63;6223238;23;20103;-83
2021/05/23 02:10:11;;;;;;;11.20;3.75;;;;;;;-143.98;100.00;68091.63;6224718;23;20028;-84
2021/05/23 02:12:39;;;;;;;13.10;2.95;;;;;;;-143.98;100.00;68091.63;6222950;23;20024;-83
2021/05/23 02:15:07;;;;;;;15.27;3.67;;;;;;;-143.98;100.00;68091.63;6247663;23;20032;-83
2021/05/23 02:17:38;;;;;;;7.70;3.20;;;;;;;-143.98;100.00;68091.63;6200067;23;20027;-84
2021/05/23 02:20:11;;;;;;;10.50;3.00;;;;;;;-143.98;100.00;68091.63;6247648;23;20028;-83
2021/05/23 02:22:43;;;;;;;11.77;2.85;;;;;;;-143.98;100.00;68091.63;6249661;23;20024;-83
2021/05/23 02:25:12;;;;;;;6.88;2.60;;;;;;;-143.98;100.00;68091.63;6247391;23;20024;-83
2021/05/23 02:27:41;;;;;;;10.15;2.83;;;;;;;-143.98;100.00;68091.63;6249111;23;20028;-83
2021/05/23 02:30:20;;;;;;;15.75;3.67;;;;;;;-143.98;100.00;68091.63;6246626;23;20024;-83
2021/05/23 02:32:48;;;;;;;9.57;2.72;;;;;;;-143.98;100.00;68091.63;6247498;23;20068;-84
2021/05/23 02:35:17;;;;;;;17.25;4.35;;;;;;;-143.98;100.00;68091.63;6220928;23;20145;-84
2021/05/23 02:37:47;;;;;;;10.57;3.00;;;;;;;-143.98;100.00;68091.63;6247877;23;20059;-84
2021/05/23 02:40:18;;;;;;;14.60;2.88;;;;;;;-143.98;100.00;68091.63;6245112;23;20028;-84
2021/05/23 02:42:46;;;;;;;10.95;3.55;;;;;;;-143.98;100.00;68091.63;6222202;23;20072;-83
2021/05/23 02:45:15;;;;;;;12.05;3.55;;;;;;;-143.98;100.00;68091.63;6246410;23;20032;-84
2021/05/23 02:47:43;;;;;;;15.88;4.85;;;;;;;-143.98;100.00;68091.63;6248374;23;20208;-84
2021/05/23 02:50:13;;;;;;;9.60;3.42;;;;;;;-143.98;100.00;68091.63;6222896;23;20028;-84
2021/05/23 02:52:40;;;;;;;9.48;3.47;;;;;;;-143.98;100.00;68091.63;6222220;23;20078;-84
2021/05/23 02:55:08;;;;;;;10.63;3.80;;;;;;;-143.98;100.00;68091.63;6248786;23;20035;-85
2021/05/23 02:57:36;;;;;;;14.52;4.30;;;;;;;-143.98;100.00;68091.63;6247460;23;20035;-85
2021/05/23 03:00:06;;;;;;;11.65;4.43;;;;;;;-143.98;100.00;68091.63;6246998;23;20019;-82
2021/05/23 03:02:33;;;;;;;18.77;4.38;;;;;;;-143.98;100.00;68091.63;6247835;22;20107;-82
2021/05/23 03:05:00;;;;;;;11.80;4.95;;;;;;;-143.98;100.00;68091.63;6247363;23;20100;-82
2021/05/23 03:07:27;;;;;;;11.45;4.18;;;;;;;-143.98;100.00;68091.63;6245983;23;20067;-82
2021/05/23 03:09:54;;;;;;;14.85;4.95;;;;;;;-143.98;100.00;68091.63;6219804;23;20113;-83
2021/05/23 03:12:21;;;;;;;14.95;5.45;;;;;;;-143.98;100.00;68091.63;6221263;23;20390;-83
2021/05/23 03:14:48;;;;;;;14.27;5.00;;;;;;;-143.98;100.00;68091.63;6221014;23;20107;-82
2021/05/23 03:17:15;;;;;;;17.60;6.45;;;;;;;-143.98;100.00;68091.63;6246446;23;20394;-83
2021/05/23 03:19:42;;;;;;;17.67;6.25;;;;;;;-143.98;100.00;68091.63;6246223;23;20028;-83
2021/05/23 03:22:08;;;;;;;18.00;5.80;;;;;;;-143.98;100.00;68091.63;6249502;23;20028;-82
2021/05/23 03:24:36;;;;;;;18.33;5.70;;;;;;;-143.98;100.00;68091.63;6222925;23;20318;-83
2021/05/23 03:27:06;;;;;;;13.00;5.90;;;;;;;-143.98;100.00;68091.63;6225323;23;20080;-83
2021/05/23 03:29:36;;;;;;;20.80;6.85;;;;;;;-143.98;100.00;68091.63;6224106;23;20028;-83
2021/05/23 03:32:05;;;;;;;17.73;6.82;;;;;;;-143.98;100.00;68091.63;6249672;23;20054;-82
2021/05/23 03:34:32;;;;;;;19.48;6.78;;;;;;;-143.98;100.00;68091.63;6248386;23;20063;-82
2021/05/23 03:37:01;;;;;;;15.20;7.05;;;;;;;-143.98;100.00;68091.63;6248157;23;20024;-83
2021/05/23 03:39:27;;;;;;;23.52;7.57;;;;;;;-143.98;100.00;68091.63;6223689;23;20031;-83
2021/05/23 03:41:54;;;;;;;13.27;6.70;;;;;;;-143.98;100.00;68091.63;6224454;23;20028;-84
2021/05/23 03:44:21;;;;;;;20.50;7.45;;;;;;;-143.98;100.00;68091.63;6246629;23;20024;-83
2021/05/23 03:46:48;;;;;;;23.90;7.43;;;;;;;-143.98;100.00;68091.63;6247989;23;20051;-83
2021/05/23 03:49:15;;;;;;;20.35;7.15;;;;;;;-143.98;100.00;68091.63;6249778;22;20020;-83
2021/05/23 03:51:44;;;;;;;22.48;8.60;;;;;;;-143.98;100.00;68091.63;6222459;23;20028;-83
2021/05/23 03:54:10;;;;;;;24.13;7.70;;;;;;;-143.98;100.00;68091.63;6249405;23;20024;-82
2021/05/23 03:56:37;;;;;;;25.75;8.65;;;;;;;-143.98;100.00;68091.63;6248146;23;20028;-83
2021/05/23 03:59:04;;;;;;;24.00;9.23;;;;;;;-143.98;100.00;68091.63;6225536;23;20051;-82
2021/05/23 04:01:31;;;;;;;17.55;8.25;;;;;;;-143.98;100.00;68091.63;6235367;22;20077;-82
2021/05/23 04:04:00;;;;;;;21.70;7.65;;;;;;;-143.98;100.00;68091.63;6269305;22;20016;-82
2021/05/23 04:06:27;;;;;;;15.18;7.18;;;;;;;-143.98;100.00;68091.63;6230543;22;20024;-83
2021/05/23 04:08:55;;;;;;;15.65;6.55;;;;;;;-143.98;100.00;68091.63;6223381;23;20090;-84
2021/05/23 04:11:27;;;;;;;20.10;5.80;;;;;;;-143.98;100.00;68091.63;6247052;23;20028;-83
2021/05/23 04:13:54;;;;;;;14.90;6.82;;;;;;;-143.98;100.00;68091.63;6222711;23;20477;-84
2021/05/23 04:16:21;;;;;;;16.88;6.53;;;;;;;-143.98;100.00;68091.63;6247197;23;20183;-84
2021/05/23 04:18:48;;;;;;;19.80;6.22;;;;;;;-143.98;100.00;68091.63;6248742;23;20020;-84
2021/05/23 04:21:15;;;;;;;19.52;7.32;;;;;;;-143.98;100.00;68091.63;6256265;23;20043;-83
2021/05/23 04:23:45;;;;;;;18.75;6.97;;;;;;;-143.98;100.00;68091.63;6234204;23;20054;-83
2021/05/23 04:26:13;;;;;;;17.02;6.18;;;;;;;-143.98;100.00;68091.63;6233285;23;20208;-83
2021/05/23 04:28:39;;;;;;;17.17;7.00;;;;;;;-143.98;100.00;68091.63;6252442;23;20059;-84
2021/05/23 04:31:06;;;;;;;15.88;6.10;;;;;;;-143.98;100.00;68091.63;6249196;22;20278;-83
2021/05/23 04:33:36;;;;;;;14.35;5.88;;;;;;;-143.98;100.00;68091.63;6221197;23;20288;-83
2021/05/23 04:36:03;;;;;;;9.10;4.22;;;;;;;-143.98;100.00;68091.63;6246060;23;20325;-83
2021/05/23 04:38:30;;;;;;;21.00;4.30;;;;;;;-143.98;100.00;68091.63;6221317;23;20088;-84
2021/05/23 04:40:57;;;;;;;10.27;4.00;;;;;;;-143.98;100.00;68091.63;6221519;23;20028;-84
2021/05/23 04:43:25;;;;;;;15.27;4.07;;;;;;;-143.98;100.00;68091.63;6248311;22;20020;-84
2021/05/23 04:45:58;;;;;;;16.67;3.83;;;;;;;-143.98;100.00;68091.63;6248838;23;20309;-83
2021/05/23 04:48:28;;;;;;;10.30;3.85;;;;;;;-143.98;100.00;68091.63;6223561;23;20066;-83
2021/05/23 04:51:00;;;;;;;12.93;3.45;;;;;;;-143.98;100.00;68091.63;6247993;22;20059;-83
2021/05/23 04:53:34;;;;;;;10.90;3.40;;;;;;;-143.98;100.00;68091.63;6224058;23;20099;-83
2021/05/23 04:56:01;;;;;;;11.55;3.45;;;;;;;-143.98;100.00;68091.63;6248184;23;20028;-83
2021/05/23 04:58:33;;;;;;;9.60;3.00;;;;;;;-143.98;100.00;68091.63;6247938;23;20036;-83
2021/05/23 05:01:06;;;;;;;8.57;2.70;;;;;;;-143.98;100.00;68091.63;6245516;23;20120;-83
2021/05/23 05:03:33;;;;;;;8.80;2.40;;;;;;;-143.98;100.00;68091.63;6246063;23;20024;-83
2021/05/23 05:06:03;;;;;;;17.63;3.42;;;;;;;-143.98;100.00;68091.63;6247843;22;20104;-84
2021/05/23 05:08:30;;;;;;;10.55;2.78;;;;;;;-143.98;100.00;68091.63;6222679;23;20327;-83
2021/05/23 05:11:13;;;;;;;12.80;2.47;;;;;;;-143.98;100.00;68091.63;6247889;22;20039;-84
2021/05/23 05:13:39;;;;;;;16.38;2.35;;;;;;;-143.98;100.00;68091.63;6244376;23;20462;-84
2021/05/23 05:16:08;;;;;;;13.02;2.40;;;;;;;-143.98;100.00;68091.63;6246851;23;20024;-83
2021/05/23 05:18:35;;;;;;;10.05;2.45;;;;;;;-143.98;100.00;68091.63;6222908;23;20071;-83
2021/05/23 05:21:06;;;;;;;8.93;2.00;;;;;;;-143.98;100.00;68091.63;6248166;23;20187;-83
2021/05/23 05:23:32;;;;;;;7.18;1.92;;;;;;;-143.98;100.00;68091.63;6245440;23;20541;-84
2021/05/23 05:26:03;;;;;;;7.60;2.22;;;;;;;-143.98;100.00;68091.63;6220859;23;20024;-84
2021/05/23 05:28:30;;;;;;;9.38;2.17;;;;;;;-143.98;100.00;68091.63;6246712;23;20103;-84
2021/05/23 05:31:03;;;;;;;8.55;2.20;;;;;;;-143.98;100.00;68091.63;6248091;22;20036;-84
2021/05/23 05:33:30;;;;;;;11.50;2.45;;;;;;;-143.98;100.00;68091.63;6249062;23;20082;-84
2021/05/23 05:35:58;;;;;;;8.77;2.45;;;;;;;-143.98;100.00;68091.63;6250712;23;20038;-84
2021/05/23 05:38:24;;;;;;;7.18;2.03;;;;;;;-143.98;100.00;68091.63;6224493;23;20031;-84
2021/05/23 05:41:00;;;;;;;;;;;;;;;-143.98;100.00;68091.63;6226628;23;20027;-84
2021/05/23 05:43:36;;;;;;;;;;;;;;;-143.98;100.00;68091.63;6222523;23;19926;-84
2021/05/23 05:46:06;;;;;;;8.63;2.03;;;;;;;-143.98;100.00;68091.63;6223189;23;20042;-84
2021/05/23 05:48:39;;;;;;;7.57;2.10;;;;;;;-143.98;100.00;68091.63;6250784;23;20087;-84
2021/05/23 05:51:06;;;;;;;12.80;2.08;;;;;;;-143.98;100.00;68091.63;6251382;23;20028;-84
2021/05/23 05:53:33;;;;;;;6.13;1.70;;;;;;;-143.98;100.00;68091.63;6226406;23;20082;-85
2021/05/23 05:56:00;;;;;;;8.93;1.88;;;;;;;-143.98;100.00;68091.63;6251999;23;20074;-85
2021/05/23 05:58:39;;;;;;;9.50;2.00;;;;;;;-143.98;100.00;68091.63;6225610;23;20107;-86
2021/05/23 06:01:13;;;;;;;9.27;1.92;;;;;;;-143.98;100.00;68091.63;6224081;23;20214;-86
2021/05/23 06:03:40;;;;;;;8.70;1.92;;;;;;;-143.98;100.00;68091.63;6248658;23;20277;-86
2021/05/23 06:06:07;;;;;;;8.82;1.92;;;;;;;-143.98;100.00;68091.63;6224307;23;20024;-88
2021/05/23 06:08:34;;;;;;;13.13;1.95;;;;;;;-143.98;100.00;68091.63;6250550;23;20390;-85
2021/05/23 06:11:05;;;;;;;10.70;1.98;;;;;;;-143.98;100.00;68091.63;6249847;23;20063;-90
2021/05/23 06:13:37;;;;;;;6.38;1.58;;;;;;;-143.98;100.00;68091.63;6225927;23;20020;-86
2021/05/23 06:16:07;;;;;;;9.50;1.55;;;;;;;-143.98;100.00;68091.63;6250997;23;20421;-86
2021/05/23 06:18:41;;;;;;;6.45;1.40;;;;;;;-143.98;100.00;68091.63;6224644;23;20109;-84
2021/05/23 06:21:08;;;;;;;6.50;2.10;;;;;;;-143.98;100.00;68091.63;6250672;23;20035;-86
2021/05/23 06:23:35;;;;;;;6.95;1.70;;;;;;;-143.98;100.00;68091.63;6227192;23;20024;-85
2021/05/23 06:26:12;;;;;;;11.73;1.83;;;;;;;-143.98;100.00;68091.63;6251167;22;20043;-85
2021/05/23 06:28:41;;;;;;;4.97;1.30;;;;;;;-143.98;100.00;68091.63;6249451;23;20024;-86
2021/05/23 06:31:09;;;;;;;7.55;1.85;;;;;;;-143.98;100.00;68091.63;6251483;23;20052;-87
2021/05/23 06:33:36;;;;;;;9.73;1.73;;;;;;;-143.98;100.00;68091.63;6250220;23;20106;-87
2021/05/23 06:36:05;;;;;;;8.82;1.70;;;;;;;-143.98;100.00;68091.63;6224222;23;20024;-87
2021/05/23 06:38:32;;;;;;;6.82;1.55;;;;;;;-143.98;100.00;68091.63;6251824;23;20356;-86
2021/05/23 06:40:59;;;;;;;11.65;1.67;;;;;;;-143.98;100.00;68091.63;6222062;23;20028;-86
2021/05/23 06:43:26;;;;;;;9.30;1.50;;;;;;;-143.98;100.00;68091.63;6249050;23;20138;-87
2021/05/23 06:46:02;;;;;;;7.97;1.55;;;;;;;-143.98;100.00;68091.63;6251741;23;20083;-89
2021/05/23 06:48:37;;;;;;;6.80;1.52;;;;;;;-143.98;100.00;68091.63;6225315;23;20024;-88
2021/05/23 06:51:04;;;;;;;8.43;1.67;;;;;;;-143.98;100.00;68091.63;6222515;23;20106;-87
2021/05/23 06:53:31;;;;;;;11.10;1.67;;;;;;;-143.98;100.00;68091.63;6250879;23;20035;-84
2021/05/23 06:55:58;;;;;;;7.07;1.30;;;;;;;-143.98;100.00;68091.63;6223440;23;20082;-86
2021/05/23 06:58:30;;;;;;;7.03;1.40;;;;;;;-143.98;100.00;68091.63;6223952;23;20024;-86
2021/05/23 07:00:57;;;;;;;7.95;1.50;;;;;;;-143.98;100.00;68091.63;6250841;23;20459;-85
2021/05/23 07:03:28;;;;;;;10.73;1.63;;;;;;;-143.98;100.00;68091.63;6223999;23;20028;-86
2021/05/23 07:05:55;;;;;;;5.90;1.02;;;;;;;-143.98;100.00;68091.63;6259875;22;20008;-87
2021/05/23 07:08:22;;;;;;;5.88;1.50;;;;;;;-143.98;100.00;68091.63;6240819;22;20031;-86
2021/05/23 07:10:52;;;;;;;6.15;1.30;;;;;;;-143.98;100.00;68091.63;6255410;22;20031;-85
2021/05/23 07:13:25;;;;;;;6.28;1.30;;;;;;;-143.98;100.00;68091.63;6252197;23;20035;-85
2021/05/23 07:15:55;;;;;;;8.45;1.55;;;;;;;-143.98;100.00;68091.63;6221499;23;20024;-86
2021/05/23 07:18:22;;;;;;;9.63;1.60;;;;;;;-143.98;100.00;68091.63;6250004;23;20024;-85
2021/05/23 07:20:59;;;;;;;7.55;1.30;;;;;;;-143.98;100.00;68091.63;6226218;23;20111;-86
2021/05/23 07:23:49;;;;;;;6.78;1.88;;;;;;;-143.98;100.00;68091.63;6226385;23;20078;-86
2021/05/23 07:26:19;;;;;;;7.43;1.60;;;;;;;-143.98;100.00;68091.63;6262857;23;20048;-86
2021/05/23 07:28:46;;;;;;;9.60;1.50;;;;;;;-143.98;100.00;68091.63;6240338;23;20066;-84
2021/05/23 07:31:15;;;;;;;7.45;1.45;;;;;;;-143.98;100.00;68091.63;6264820;23;20023;-87
2021/05/23 07:33:42;;;;;;;8.55;1.48;;;;;;;-143.98;100.00;68091.63;6261948;23;20036;-85
2021/05/23 07:36:12;;;;;;;6.85;1.70;;;;;;;-143.98;100.00;68091.63;6223921;23;20028;-85
2021/05/23 07:38:40;;;;;;;6.20;1.60;;;;;;;-143.98;100.00;68091.63;6221204;23;20075;-86
2021/05/23 07:41:07;;;;;;;5.82;1.33;;;;;;;-143.98;100.00;68091.63;6250757;23;20040;-86
2021/05/23 07:43:35;;;;;;;7.65;1.80;;;;;;;-143.98;100.00;68091.63;6248439;23;20024;-85
2021/05/23 07:46:02;;;;;;;8.90;1.80;;;;;;;-143.98;100.00;68091.63;6223845;23;20028;-86
2021/05/23 07:48:31;;;;;;;4.40;1.10;;;;;;;-143.98;100.00;68091.63;6248177;23;20055;-86
2021/05/23 07:50:58;;;;;;;9.18;2.40;;;;;;;-143.98;100.00;68091.63;6222997;23;20047;-85
2021/05/23 07:53:26;;;;;;;6.00;1.30;;;;;;;-143.98;100.00;68091.63;6223906;23;20115;-85
2021/05/23 07:55:54;;;;;;;6.32;1.17;;;;;;;-143.98;100.00;68091.63;6224415;23;20031;-86
2021/05/23 07:58:24;;;;;;;5.30;1.40;;;;;;;-143.98;100.00;68091.63;6221914;23;20036;-86
2021/05/23 08:01:18;;;;;;;5.97;1.35;;;;;;;-143.98;100.00;68091.63;6220843;23;20052;-85
2021/05/23 08:04:21;;;;;;;5.38;1.58;;;;;;;-143.98;100.00;68091.63;6223109;23;20035;-85
2021/05/23 08:06:52;;;;;;;4.07;0.90;;;;;;;-143.98;100.00;68091.63;6250411;23;20316;-85
2021/05/23 08:09:22;;;;;;;4.90;1.25;;;;;;;-143.98;100.00;68091.63;6223909;23;20038;-86
2021/05/23 08:12:00;;;;;;;5.38;1.20;;;;;;;-143.98;100.00;68091.63;6223913;23;20279;-85
2021/05/23 08:14:27;;;;;;;4.18;0.98;;;;;;;-143.98;100.00;68091.63;6247696;23;20024;-85
2021/05/23 08:16:54;;;;;;;5.65;1.13;;;;;;;-143.98;100.00;68091.63;6223975;23;20028;-85
2021/05/23 08:19:32;;;;;;;4.10;0.95;;;;;;;-143.98;100.00;68091.63;6224726;23;20086;-85
2021/05/23 08:21:59;;;;;;;4.18;1.25;;;;;;;-143.98;100.00;68091.63;6248818;22;20024;-85
2021/05/23 08:24:30;;;;;;;5.20;1.27;;;;;;;-143.98;100.00;68091.63;6224207;23;20047;-85
2021/05/23 08:27:14;;;;;;;5.50;1.20;;;;;;;-143.98;100.00;68091.63;6246494;23;20028;-88
2021/05/23 08:29:41;;;;;;;4.57;1.10;;;;;;;-143.98;100.00;68091.63;6248458;23;20030;-88
2021/05/23 08:32:11;;;;;;;3.55;1.10;;;;;;;-143.98;100.00;68091.63;6249480;23;20035;-88
2021/05/23 08:34:40;;;;;;;5.55;1.38;;;;;;;-143.98;100.00;68091.63;6249131;23;20035;-89
2021/05/23 08:37:11;;;;;;;3.05;1.40;;;;;;;-143.98;100.00;68091.63;6249567;23;20032;-86
2021/05/23 08:39:39;;;;;;;3.92;1.20;;;;;;;-143.98;100.00;68091.63;6223692;23;20035;-87
2021/05/23 08:42:11;;;;;;;3.95;1.17;;;;;;;-143.98;100.00;68091.63;6222621;23;20437;-87
2021/05/23 08:44:48;;;;;;;6.93;1.17;;;;;;;-143.98;100.00;68091.63;6247972;23;20027;-87
2021/05/23 08:47:15;;;;;;;3.05;1.10;;;;;;;-143.98;100.00;68091.63;6223391;23;20034;-88
2021/05/23 08:49:42;;;;;;;5.03;1.55;;;;;;;-143.98;100.00;68091.63;6247806;23;20035;-87
2021/05/23 08:52:10;;;;;;;6.07;1.10;;;;;;;-143.98;100.00;68091.63;6247143;23;20028;-86
2021/05/23 08:54:41;;;;;;;8.35;1.20;;;;;;;-143.98;100.00;68091.63;6248811;23;20028;-88
2021/05/23 08:57:11;;;;;;;6.05;0.95;;;;;;;-143.98;100.00;68091.63;6245510;23;20024;-88
2021/05/23 08:59:43;;;;;;;3.53;1.15;;;;;;;-143.98;100.00;68091.63;6250978;23;20055;-88
2021/05/23 09:02:14;;;;;;;4.53;1.38;;;;;;;-143.98;100.00;68091.63;6220686;23;20115;-87
2021/05/23 09:04:52;;;;;;;4.05;0.93;;;;;;;-143.98;100.00;68091.63;6246783;23;20018;-88
2021/05/23 09:07:19;;;;;;;5.47;0.93;;;;;;;-143.98;100.00;68091.63;6221922;23;20024;-89
2021/05/23 09:09:48;;;;;;;8.95;1.27;;;;;;;-143.98;100.00;68091.63;6222618;23;20251;-89
2021/05/23 09:12:21;;;;;;;5.15;1.20;;;;;;;-143.98;100.00;68091.63;6244823;23;20053;-87
2021/05/23 09:14:58;;;;;;;5.25;1.30;;;;;;;-143.98;100.00;68091.63;6244986;22;20028;-88
2021/05/23 09:17:26;;;;;;;4.15;1.00;;;;;;;-143.98;100.00;68091.63;6220710;23;20032;-88
2021/05/23 09:19:56;;;;;;;5.82;1.38;;;;;;;-143.98;100.00;68091.63;6221907;23;20027;-89
2021/05/23 09:22:25;;;;;;;7.05;1.20;;;;;;;-143.98;100.00;68091.63;6220652;23;20095;-89
2021/05/23 09:24:56;;;;;;;7.80;1.23;;;;;;;-143.98;100.00;68091.63;6227297;23;20024;-89
2021/05/23 09:27:27;;;;;;;4.68;1.27;;;;;;;-143.98;100.00;68091.63;6235350;23;20016;-88
2021/05/23 09:30:10;;;;;;;3.90;1.42;;;;;;;-143.98;100.00;68091.63;6235758;23;20028;-89
2021/05/23 09:32:45;;;;;;;4.55;1.10;;;;;;;-143.98;100.00;68091.63;6250483;22;20107;-88
2021/05/23 09:35:14;;;;;;;6.50;1.83;;;;;;;-143.98;100.00;68091.63;6224565;23;20020;-87
2021/05/23 09:37:43;;;;;;;4.80;1.50;;;;;;;-143.98;100.00;68091.63;6220522;23;20233;-87
2021/05/23 09:40:23;;;;;;;3.60;1.20;;;;;;;-143.98;100.00;68091.63;6192479;23;20040;-87
2021/05/23 09:42:53;;;;;;;5.88;1.83;;;;;;;-143.98;100.00;68091.63;6219731;23;20036;-87
2021/05/23 09:45:24;;;;;;;4.93;1.20;;;;;;;-143.98;100.00;68091.63;6244931;23;20024;-88
2021/05/23 09:48:07;;;;;;;3.80;1.10;;;;;;;-143.98;100.00;68091.63;6243845;22;20058;-88
2021/05/23 09:50:35;;;;;;;5.38;1.50;;;;;;;-143.98;100.00;68091.63;6219099;23;20024;-87
2021/05/23 09:53:02;;;;;;;6.03;1.42;;;;;;;-143.98;100.00;68091.63;6244726;23;20024;-87
2021/05/23 09:55:33;;;;;;;6.88;1.23;;;;;;;-143.98;100.00;68091.63;6220431;23;20090;-88
2021/05/23 09:57:59;;;;;;;4.18;1.17;;;;;;;-143.98;100.00;68091.63;6244636;23;20101;-87
2021/05/23 10:00:26;;;;;;;4.90;1.40;;;;;;;-143.98;100.00;68091.63;6244766;23;20043;-87
2021/05/23 10:02:56;;;;;;;6.55;1.88;;;;;;;-143.98;100.00;68091.63;6243063;23;20028;-87
2021/05/23 10:05:27;;;;;;;4.35;1.58;;;;;;;-143.98;100.00;68091.63;6245112;23;20024;-88
2021/05/23 10:07:53;;;;;;;6.80;1.60;;;;;;;-143.98;100.00;68091.63;6221405;23;20318;-87
2021/05/23 10:10:21;;;;;;;4.10;1.48;;;;;;;-143.98;100.00;68091.63;6224400;22;20113;-87
2021/05/23 10:12:55;;;;;;;4.22;1.50;;;;;;;-143.98;100.00;68091.63;6263142;22;20012;-87
2021/05/23 10:15:22;;;;;;;5.28;1.60;;;;;;;-143.98;100.00;68091.63;6234886;22;20161;-87
2021/05/23 10:17:56;;;;;;;7.57;1.98;;;;;;;-143.98;100.00;68091.63;6223770;23;20378;-87
2021/05/23 10:20:26;;;;;;;5.95;2.28;;;;;;;-143.98;100.00;68091.63;6245200;23;20104;-88
2021/05/23 10:22:59;;;;;;;7.13;1.25;;;;;;;-143.98;100.00;68091.63;6248197;23;20059;-87
2021/05/23 10:25:26;;;;;;;5.53;1.40;;;;;;;-143.98;100.00;68091.63;6220663;23;20012;-88
2021/05/23 10:27:54;;;;;;;3.55;1.73;;;;;;;-143.98;100.00;68091.63;6245773;23;20105;-88
2021/05/23 10:30:22;;;;;;;4.10;1.40;;;;;;;-143.98;100.00;68091.63;6244449;23;20088;-88
2021/05/23 10:32:55;;;;;;;4.00;1.17;;;;;;;-143.98;100.00;68091.63;6245901;23;20039;-88
2021/05/23 10:35:25;;;;;;;4.97;1.30;;;;;;;-143.98;100.00;68091.63;6220359;23;20027;-88
2021/05/23 10:37:56;;;;;;;2.60;1.38;;;;;;;-143.98;100.00;68091.63;6219069;23;20028;-87
2021/05/23 10:40:26;;;;;;;3.40;1.33;;;;;;;-143.98;100.00;68091.63;6243773;23;20042;-87
2021/05/23 10:42:58;;;;;;;5.72;1.52;;;;;;;-143.98;100.00;68091.63;6218792;23;20291;-88
2021/05/23 10:45:42;;;;;;;2.20;1.50;;;;;;;-143.98;100.00;68091.63;6218587;23;20373;-88
2021/05/23 10:48:18;;;;;;;5.43;1.88;;;;;;;-143.98;100.00;68091.63;6243757;23;20028;-87
2021/05/23 10:50:47;;;;;;;5.28;1.50;;;;;;;-143.98;100.00;68091.63;6219234;23;20050;-87
2021/05/23 10:53:35;;;;;;;4.30;1.35;;;;;;;-143.98;100.00;68091.63;6220167;23;20028;-87
2021/05/23 10:56:02;;;;;;;3.25;1.65;;;;;;;-143.98;100.00;68091.63;6218806;23;20217;-87
2021/05/23 10:58:31;;;;;;;4.20;1.70;;;;;;;-143.98;100.00;68091.63;6242430;23;20286;-88
2021/05/23 11:01:07;;;;;;;2.95;1.60;;;;;;;-143.98;100.00;68091.63;6242966;23;20210;-87
2021/05/23 11:03:34;;;;;;;5.38;1.88;;;;;;;-143.98;100.00;68091.63;6218166;23;20059;-88
2021/05/23 11:06:02;;;;;;;3.97;1.80;;;;;;;-143.98;100.00;68091.63;6218259;23;20106;-87
2021/05/23 11:08:31;;;;;;;6.57;2.05;;;;;;;-143.98;100.00;68091.63;6242447;23;20051;-87
2021/05/23 11:11:02;;;;;;;7.47;1.88;;;;;;;-143.98;100.00;68091.63;6241862;23;20098;-87
2021/05/23 11:13:34;;;;;;;5.28;1.83;;;;;;;-143.98;100.00;68091.63;6242891;23;20390;-88
2021/05/23 11:16:15;;;;;;;4.18;1.70;;;;;;;-143.98;100.00;68091.63;6240694;23;20356;-87
2021/05/23 11:18:42;;;;;;;5.13;1.75;;;;;;;-143.98;100.00;68091.63;6242610;23;20107;-87
2021/05/23 11:21:12;;;;;;;4.95;1.50;;;;;;;-143.98;100.00;68091.63;6241154;23;20034;-88